Time;durP1;ratioP1;P1;durP2;ratioP2;P2;SDS_P1;SDS_P2;PMS_P1;PMS_P2;Temp;Humidity;BMP_temperature;BMP_pressure;BME280_temperature;BME280_humidity;BME280_pressure;Samples;Min_cycle;Max_cycle;Signal;HPM_P1;HPM_P2
2020/12/23 00:00:28;;;;;;;2.97;1.90;;;;;;;14.37;63.85;102214.38;5026699;28;20785;-47
2020/12/23 00:02:53;;;;;;;4.38;2.38;;;;;;;14.46;63.73;102198.69;5029230;28;20040;-45
2020/12/23 00:05:19;;;;;;;3.38;2.28;;;;;;;14.55;62.88;102200.00;5028771;28;20543;-46
2020/12/23 00:07:44;;;;;;;4.65;2.70;;;;;;;14.61;62.19;102194.75;5023427;28;20052;-46
2020/12/23 00:10:10;;;;;;;4.43;3.05;;;;;;;14.59;60.45;102199.56;5029862;28;20037;-45
2020/12/23 00:12:36;;;;;;;3.78;1.65;;;;;;;14.49;58.15;102205.47;5021636;28;20094;-48
2020/12/23 00:15:04;;;;;;;3.70;2.30;;;;;;;14.55;59.23;102199.16;5015401;28;20424;-50
2020/12/23 00:17:29;;;;;;;10.05;3.75;;;;;;;14.42;61.72;102192.09;5022951;28;20045;-46
2020/12/23 00:19:55;;;;;;;4.90;2.53;;;;;;;14.50;59.73;102194.47;5028891;28;20037;-47
2020/12/23 00:22:20;;;;;;;6.43;3.08;;;;;;;14.48;59.18;102193.88;5029154;28;20037;-46
2020/12/23 00:24:46;;;;;;;2.95;1.65;;;;;;;14.43;59.09;102196.44;5029198;28;20531;-46
2020/12/23 00:27:11;;;;;;;2.80;1.92;;;;;;;14.36;59.47;102179.53;5028000;28;20110;-47
2020/12/23 00:29:38;;;;;;;4.72;3.40;;;;;;;14.37;59.41;102183.84;5026834;28;20052;-48
2020/12/23 00:32:04;;;;;;;8.80;4.63;;;;;;;14.34;58.48;102177.06;5019679;28;20484;-47
2020/12/23 00:34:30;;;;;;;4.20;2.95;;;;;;;14.37;57.96;102181.16;5028468;28;20045;-49
2020/12/23 00:36:57;;;;;;;6.63;3.25;;;;;;;14.25;57.68;102178.41;5028663;28;20464;-49
2020/12/23 00:39:22;;;;;;;4.88;2.33;;;;;;;14.24;57.29;102175.97;5026979;28;20053;-49
2020/12/23 00:41:48;;;;;;;7.00;2.20;;;;;;;14.32;57.36;102172.91;5025994;28;20033;-50
2020/12/23 00:44:14;;;;;;;3.17;2.28;;;;;;;14.18;58.43;102173.13;5028515;28;20060;-51
2020/12/23 00:46:40;;;;;;;2.88;1.80;;;;;;;14.24;58.13;102174.06;5028601;28;20033;-50
2020/12/23 00:49:05;;;;;;;4.95;2.17;;;;;;;14.12;58.53;102167.81;5028762;28;20041;-45
2020/12/23 00:51:31;;;;;;;2.78;2.05;;;;;;;14.11;58.20;102177.78;5029585;28;20033;-55
2020/12/23 00:53:56;;;;;;;3.35;2.03;;;;;;;14.07;57.27;102173.06;5031916;28;20033;-50
2020/12/23 00:56:22;;;;;;;2.90;1.95;;;;;;;14.09;56.89;102162.88;5031170;28;20522;-48
2020/12/23 00:58:48;;;;;;;2.85;1.25;;;;;;;14.18;56.13;102162.34;5031593;28;20037;-49
2020/12/23 01:01:14;;;;;;;5.55;1.40;;;;;;;14.24;56.11;102170.56;5031284;28;20113;-50
2020/12/23 01:03:39;;;;;;;6.57;1.70;;;;;;;14.19;55.30;102168.53;5031502;28;20042;-50
2020/12/23 01:06:12;;;;;;;5.47;1.55;;;;;;;14.29;57.67;102165.31;5028727;28;20038;-47
2020/12/23 01:08:38;;;;;;;1.25;0.60;;;;;;;14.34;58.48;102163.56;5031492;28;20037;-51
2020/12/23 01:11:07;;;;;;;2.95;1.08;;;;;;;14.29;59.14;102160.72;5031700;28;20038;-50
2020/12/23 01:13:34;;;;;;;1.15;0.82;;;;;;;14.25;60.87;102174.88;5031349;28;20068;-48
2020/12/23 01:16:00;;;;;;;2.22;1.45;;;;;;;14.32;61.42;102165.66;5031755;28;20076;-50
2020/12/23 01:18:25;;;;;;;3.10;1.30;;;;;;;14.27;59.16;102173.63;5028432;28;20122;-51
2020/12/23 01:20:54;;;;;;;2.42;1.13;;;;;;;14.12;58.17;102171.31;5031472;28;20034;-47
2020/12/23 01:23:20;;;;;;;3.70;1.55;;;;;;;14.11;57.98;102175.09;5031105;28;20065;-51
2020/12/23 01:25:45;;;;;;;6.20;0.98;;;;;;;14.06;57.62;102164.16;5029932;28;20099;-50
2020/12/23 01:28:11;;;;;;;2.28;1.40;;;;;;;13.99;57.98;102158.84;5031089;28;20474;-48
2020/12/23 01:30:36;;;;;;;3.08;1.10;;;;;;;13.89;57.74;102169.34;5031262;28;20030;-48
2020/12/23 01:33:03;;;;;;;2.72;1.25;;;;;;;13.83;56.32;102164.84;5030755;28;20119;-48
2020/12/23 01:35:29;;;;;;;2.50;1.10;;;;;;;13.96;56.16;102163.88;5027915;28;20072;-47
2020/12/23 01:37:54;;;;;;;8.32;2.25;;;;;;;13.93;56.71;102159.75;5030890;28;20099;-49
2020/12/23 01:40:19;;;;;;;1.65;1.02;;;;;;;14.00;56.70;102162.34;5030890;28;20125;-50
2020/12/23 01:42:45;;;;;;;1.65;1.15;;;;;;;14.09;56.42;102160.16;5030816;28;20037;-50
2020/12/23 01:45:10;;;;;;;1.08;0.77;;;;;;;13.94;57.56;102161.41;5031182;28;20048;-47
2020/12/23 01:47:36;;;;;;;1.38;0.82;;;;;;;13.93;59.48;102162.44;5030626;28;20118;-48
2020/12/23 01:50:03;;;;;;;2.72;1.48;;;;;;;13.98;62.43;102159.06;5023410;28;20045;-49
2020/12/23 01:52:28;;;;;;;1.08;0.52;;;;;;;14.03;59.90;102164.59;5030837;28;20041;-45
2020/12/23 01:54:59;;;;;;;1.10;0.40;;;;;;;14.00;57.44;102159.66;5031117;28;20369;-45
2020/12/23 01:57:24;;;;;;;1.53;1.10;;;;;;;13.99;61.22;102155.34;5030857;28;20391;-47
2020/12/23 01:59:50;;;;;;;4.07;1.33;;;;;;;14.13;59.91;102162.19;5031086;28;20464;-47
2020/12/23 02:02:37;;;;;;;1.10;0.70;;;;;;;13.97;57.09;102165.50;5029618;28;20519;-47
2020/12/23 02:05:06;;;;;;;1.13;0.65;;;;;;;14.04;57.04;102154.63;5022443;28;20042;-48
2020/12/23 02:07:32;;;;;;;1.20;0.50;;;;;;;14.07;57.66;102154.19;5018026;28;20037;-47
2020/12/23 02:10:03;;;;;;;1.17;0.55;;;;;;;14.10;56.67;102151.84;5016725;28;20366;-47
2020/12/23 02:12:28;;;;;;;1.20;0.77;;;;;;;14.16;59.48;102158.19;5028311;28;20037;-46
2020/12/23 02:14:58;;;;;;;2.20;0.88;;;;;;;14.21;57.93;102150.25;5030916;28;20045;-45
2020/12/23 02:17:26;;;;;;;1.00;0.68;;;;;;;14.13;58.90;102153.25;5030731;28;20033;-46
2020/12/23 02:19:52;;;;;;;0.47;0.30;;;;;;;14.11;57.25;102152.66;5030948;28;20498;-47
2020/12/23 02:22:23;;;;;;;1.85;0.80;;;;;;;14.13;56.83;102150.56;5030621;28;20042;-46
2020/12/23 02:24:51;;;;;;;0.93;0.50;;;;;;;14.09;57.22;102144.00;5025945;28;20120;-47
2020/12/23 02:27:18;;;;;;;4.18;0.90;;;;;;;14.08;55.80;102147.75;5030611;28;20068;-46
2020/12/23 02:29:45;;;;;;;0.70;0.43;;;;;;;14.12;55.54;102152.44;5030763;28;20430;-45
2020/12/23 02:32:11;;;;;;;1.17;0.60;;;;;;;14.04;54.54;102135.75;5030517;28;20060;-45
2020/12/23 02:34:36;;;;;;;0.95;0.63;;;;;;;14.10;53.84;102138.38;5022563;28;20778;-48
2020/12/23 02:37:04;;;;;;;0.43;0.20;;;;;;;14.08;54.28;102135.09;5016215;28;20030;-46
2020/12/23 02:39:30;;;;;;;2.17;1.23;;;;;;;13.96;54.06;102136.91;5019352;28;20120;-45
2020/12/23 02:41:56;;;;;;;2.83;0.85;;;;;;;14.01;53.96;102131.66;5028299;28;20456;-46
2020/12/23 02:44:22;;;;;;;1.60;0.85;;;;;;;13.82;55.08;102130.88;5030272;28;20041;-45
2020/12/23 02:46:56;;;;;;;0.40;0.38;;;;;;;13.95;53.85;102127.16;5030539;28;20455;-48
2020/12/23 02:49:22;;;;;;;0.32;0.25;;;;;;;14.04;54.66;102117.69;5030561;28;20097;-46
2020/12/23 02:51:48;;;;;;;0.98;0.60;;;;;;;14.02;59.72;102124.38;5030213;28;20056;-45
2020/12/23 02:54:13;;;;;;;1.50;0.70;;;;;;;14.03;56.08;102126.03;5030421;28;20309;-47
2020/12/23 02:56:38;;;;;;;0.73;0.38;;;;;;;13.96;54.55;102104.56;5030403;28;20412;-45
2020/12/23 02:59:04;;;;;;;0.60;0.50;;;;;;;14.12;56.85;102108.47;5030337;28;20038;-51
2020/12/23 03:01:29;;;;;;;1.55;0.90;;;;;;;14.10;57.11;102110.59;5030848;28;20029;-50
2020/12/23 03:03:55;;;;;;;2.17;1.23;;;;;;;14.08;59.47;102102.72;5033946;28;20042;-50
2020/12/23 03:06:20;;;;;;;2.65;1.08;;;;;;;13.99;61.14;102104.09;5033717;28;20069;-46
2020/12/23 03:08:46;;;;;;;1.30;0.65;;;;;;;14.04;63.14;102101.50;5033510;28;20068;-46
2020/12/23 03:11:11;;;;;;;2.42;1.65;;;;;;;14.00;63.84;102103.84;5032786;28;20038;-45
2020/12/23 03:13:36;;;;;;;5.43;0.85;;;;;;;14.08;63.48;102097.31;5033374;28;20057;-45
2020/12/23 03:16:02;;;;;;;3.17;1.92;;;;;;;14.16;61.84;102098.88;5033408;28;20488;-48
2020/12/23 03:18:28;;;;;;;1.27;0.93;;;;;;;14.09;59.67;102100.84;5033656;28;20585;-47
2020/12/23 03:20:53;;;;;;;1.25;0.60;;;;;;;13.97;63.62;102101.63;5033244;28;20041;-46
2020/12/23 03:23:19;;;;;;;2.35;0.70;;;;;;;14.10;63.51;102094.41;5033117;28;20124;-49
2020/12/23 03:25:44;;;;;;;1.45;0.55;;;;;;;14.14;63.72;102095.56;5033137;28;20044;-47
2020/12/23 03:28:09;;;;;;;0.98;0.40;;;;;;;14.16;57.93;102096.16;5030762;28;20075;-46
2020/12/23 03:30:35;;;;;;;0.85;0.40;;;;;;;14.06;55.57;102094.03;5033373;28;20033;-45
2020/12/23 03:33:00;;;;;;;0.70;0.32;;;;;;;13.99;53.55;102086.03;5033149;28;20104;-50
2020/12/23 03:35:26;;;;;;;0.57;0.28;;;;;;;13.93;52.28;102094.22;5033123;28;20071;-45
2020/12/23 03:37:51;;;;;;;0.10;0.10;;;;;;;13.88;51.19;102081.41;5032615;28;20589;-45
2020/12/23 03:40:17;;;;;;;0.50;0.15;;;;;;;13.82;52.57;102089.63;5033170;28;20464;-46
2020/12/23 03:42:42;;;;;;;1.75;0.57;;;;;;;13.64;53.35;102087.75;5032737;28;20471;-45
2020/12/23 03:45:07;;;;;;;0.80;0.25;;;;;;;13.58;52.08;102087.59;5033101;28;20037;-45
2020/12/23 03:47:33;;;;;;;0.50;0.32;;;;;;;13.47;52.94;102087.56;5031101;28;20120;-50
2020/12/23 03:49:58;;;;;;;0.47;0.20;;;;;;;13.57;51.36;102085.16;5033062;28;20034;-46
2020/12/23 03:52:24;;;;;;;3.03;0.10;;;;;;;13.58;51.52;102089.50;5032742;28;20080;-47
2020/12/23 03:54:49;;;;;;;1.52;0.50;;;;;;;13.53;52.04;102092.84;5033086;28;20041;-45
2020/12/23 03:57:15;;;;;;;0.13;0.10;;;;;;;13.51;50.28;102094.94;5032502;28;20727;-45
2020/12/23 03:59:40;;;;;;;0.57;0.30;;;;;;;13.64;52.77;102087.75;5033012;28;20106;-48
2020/12/23 04:02:06;;;;;;;1.45;0.30;;;;;;;13.55;51.23;102080.00;5032371;28;20037;-47
2020/12/23 04:04:31;;;;;;;0.50;0.22;;;;;;;13.52;52.43;102085.84;5032696;28;20041;-49
2020/12/23 04:06:56;;;;;;;0.73;0.50;;;;;;;13.41;51.34;102089.28;5032453;28;20037;-50
2020/12/23 04:09:22;;;;;;;0.65;0.40;;;;;;;13.56;51.00;102078.94;5032403;28;20047;-50
2020/12/23 04:11:47;;;;;;;0.45;0.22;;;;;;;13.59;53.73;102086.56;5032146;28;20029;-51
2020/12/23 04:14:13;;;;;;;2.00;0.30;;;;;;;13.59;51.65;102077.69;5032244;28;20047;-50
2020/12/23 04:16:39;;;;;;;0.47;0.35;;;;;;;13.63;54.57;102080.72;5032335;28;20053;-45
2020/12/23 04:19:04;;;;;;;0.55;0.22;;;;;;;13.61;52.22;102081.78;5032148;28;20558;-46
2020/12/23 04:21:30;;;;;;;0.38;0.20;;;;;;;13.39;51.81;102073.34;5026703;28;20028;-45
2020/12/23 04:23:56;;;;;;;0.45;0.30;;;;;;;13.37;51.86;102070.03;5031876;28;20049;-48
2020/12/23 04:26:21;;;;;;;0.32;0.32;;;;;;;13.35;52.00;102060.56;5032046;28;20037;-47
2020/12/23 04:28:46;;;;;;;0.22;0.20;;;;;;;13.36;52.24;102063.03;5032154;28;20075;-52
2020/12/23 04:31:12;;;;;;;0.65;0.30;;;;;;;13.32;52.32;102067.19;5031688;28;20045;-45
2020/12/23 04:33:37;;;;;;;2.05;0.60;;;;;;;13.22;52.43;102065.00;5029786;28;20038;-45
2020/12/23 04:36:04;;;;;;;1.42;0.52;;;;;;;13.20;52.70;102068.97;5028385;28;20049;-46
2020/12/23 04:38:29;;;;;;;2.38;0.20;;;;;;;13.21;52.67;102067.94;5031674;28;20071;-47
2020/12/23 04:40:56;;;;;;;0.65;0.22;;;;;;;13.15;52.05;102069.66;5024854;28;20471;-47
2020/12/23 04:43:22;;;;;;;0.40;0.25;;;;;;;13.21;51.13;102060.66;5032008;28;20041;-47
2020/12/23 04:45:48;;;;;;;0.43;0.20;;;;;;;13.26;51.34;102054.63;5031230;28;20112;-46
2020/12/23 04:48:20;;;;;;;0.10;0.10;;;;;;;13.22;50.69;102064.19;5021092;28;20052;-46
2020/12/23 04:50:51;;;;;;;1.98;0.38;;;;;;;13.06;51.69;102060.25;5020904;28;20076;-47
2020/12/23 04:53:16;;;;;;;0.30;0.20;;;;;;;13.09;50.84;102054.38;5030982;28;20033;-46
2020/12/23 04:55:43;;;;;;;0.15;0.10;;;;;;;13.16;51.63;102063.22;5023142;28;20278;-46
2020/12/23 04:58:11;;;;;;;0.40;0.30;;;;;;;13.02;51.72;102064.41;5025941;28;20037;-45
2020/12/23 05:00:37;;;;;;;1.08;0.30;;;;;;;13.02;51.98;102067.09;5031539;28;20029;-47
2020/12/23 05:03:02;;;;;;;1.77;0.73;;;;;;;12.97;52.19;102062.41;5031286;28;20698;-48
2020/12/23 05:05:28;;;;;;;0.85;0.40;;;;;;;13.07;51.87;102063.75;5031740;28;20419;-46
2020/12/23 05:07:55;;;;;;;0.93;0.17;;;;;;;13.10;49.14;102056.03;5031183;28;20087;-46
2020/12/23 05:10:21;;;;;;;1.25;0.63;;;;;;;13.21;49.59;102052.59;5030549;28;20095;-47
2020/12/23 05:12:46;;;;;;;0.10;0.10;;;;;;;13.24;49.24;102054.03;5030572;28;20034;-49
2020/12/23 05:15:12;;;;;;;0.35;0.30;;;;;;;13.34;49.53;102053.50;5030708;28;20041;-50
2020/12/23 05:17:43;;;;;;;0.20;0.15;;;;;;;13.32;49.26;102050.22;5031188;28;20033;-49
2020/12/23 05:20:08;;;;;;;0.43;0.20;;;;;;;13.15;49.89;102053.50;5030818;28;20045;-52
2020/12/23 05:22:34;;;;;;;0.77;0.20;;;;;;;13.13;50.24;102055.59;5031102;28;20067;-49
2020/12/23 05:25:01;;;;;;;0.20;0.10;;;;;;;13.19;48.48;102046.59;5030631;28;20383;-46
2020/12/23 05:27:26;;;;;;;3.65;0.20;;;;;;;13.21;47.75;102036.44;5028635;28;20067;-46
2020/12/23 05:29:52;;;;;;;2.30;0.50;;;;;;;13.14;50.31;102037.56;5028295;28;20094;-45
2020/12/23 05:32:18;;;;;;;0.75;0.20;;;;;;;13.17;50.51;102040.63;5030846;28;20439;-45
2020/12/23 05:34:48;;;;;;;1.83;0.43;;;;;;;13.19;54.37;102040.41;5027798;28;20054;-48
2020/12/23 05:37:17;;;;;;;0.82;0.40;;;;;;;13.32;54.36;102036.75;5030575;28;20445;-46
2020/12/23 05:39:43;;;;;;;0.22;0.20;;;;;;;13.37;53.84;102042.28;5030852;28;20442;-47
2020/12/23 05:42:09;;;;;;;0.47;0.30;;;;;;;13.41;53.16;102040.78;5030461;28;20029;-45
2020/12/23 05:44:36;;;;;;;2.17;0.63;;;;;;;13.39;54.38;102042.88;5030875;28;20095;-45
2020/12/23 05:47:01;;;;;;;1.35;0.60;;;;;;;13.44;54.99;102051.09;5025200;28;20033;-49
2020/12/23 05:49:27;;;;;;;1.45;0.90;;;;;;;13.48;53.16;102041.53;5025261;28;20545;-46
2020/12/23 05:51:53;;;;;;;0.73;0.50;;;;;;;13.38;50.85;102043.94;5030932;28;20038;-47
2020/12/23 05:54:20;;;;;;;1.23;0.68;;;;;;;13.39;51.78;102042.88;5030892;28;20099;-47
2020/12/23 05:56:45;;;;;;;1.27;0.73;;;;;;;13.36;57.38;102043.34;5025505;28;20396;-48
2020/12/23 05:59:11;;;;;;;1.48;0.60;;;;;;;13.36;57.22;102044.16;5030942;28;20034;-53
2020/12/23 06:01:38;;;;;;;0.55;0.32;;;;;;;13.41;56.52;102048.84;5030089;28;20041;-45
2020/12/23 06:04:15;;;;;;;0.57;0.30;;;;;;;13.39;56.28;102042.88;5026597;28;20188;-49
2020/12/23 06:06:43;;;;;;;0.98;0.40;;;;;;;13.35;51.71;102049.78;5030268;28;20029;-45
2020/12/23 06:09:11;;;;;;;0.65;0.45;;;;;;;13.40;57.27;102048.03;5023653;28;20507;-45
2020/12/23 06:11:37;;;;;;;0.35;0.28;;;;;;;13.53;56.11;102051.63;5030693;28;20112;-47
2020/12/23 06:14:03;;;;;;;1.20;0.65;;;;;;;13.55;55.44;102054.91;5030322;28;20061;-48
2020/12/23 06:17:04;;;;;;;0.95;0.52;;;;;;;13.60;56.12;102052.34;5030645;28;20029;-46
2020/12/23 06:19:37;;;;;;;0.90;0.38;;;;;;;13.53;58.93;102048.94;5028395;28;20093;-46
2020/12/23 06:22:10;;;;;;;0.30;0.30;;;;;;;13.52;57.08;102055.38;5029635;28;20038;-48
2020/12/23 06:24:39;;;;;;;2.05;1.15;;;;;;;13.53;57.13;102065.09;5029602;28;20041;-46
2020/12/23 06:27:09;;;;;;;1.88;1.10;;;;;;;13.53;62.43;102062.41;5024217;28;20104;-49
2020/12/23 06:29:41;;;;;;;1.55;1.23;;;;;;;13.51;63.34;102059.94;5030722;28;20033;-52
2020/12/23 06:32:24;;;;;;;1.20;0.68;;;;;;;13.61;63.08;102059.41;5019192;28;20030;-48
2020/12/23 06:34:58;;;;;;;9.35;1.08;;;;;;;13.60;63.59;102063.97;5025456;28;20492;-45
2020/12/23 06:37:29;;;;;;;2.58;1.40;;;;;;;13.65;64.10;102067.84;5033246;28;20557;-45
2020/12/23 06:39:56;;;;;;;1.77;0.90;;;;;;;13.67;63.69;102073.84;5020080;28;20546;-45
2020/12/23 06:42:23;;;;;;;1.35;1.13;;;;;;;13.61;63.88;102071.00;5022088;28;20029;-46
2020/12/23 06:44:49;;;;;;;2.25;1.23;;;;;;;13.67;64.44;102079.22;5029370;28;20029;-45
2020/12/23 06:47:20;;;;;;;2.95;1.38;;;;;;;13.71;64.75;102070.47;5022193;28;20081;-45
2020/12/23 06:49:46;;;;;;;;;;;;;;;13.70;60.89;102084.16;5029303;28;20475;-47
2020/12/23 06:52:21;;;;;;;1.25;0.77;;;;;;;13.57;59.94;102063.59;5027969;28;19909;-45
2020/12/23 06:54:50;;;;;;;0.85;0.47;;;;;;;13.62;57.62;102063.72;5023075;28;20052;-48
2020/12/23 06:57:34;;;;;;;0.57;0.28;;;;;;;13.58;53.16;102067.94;5033557;28;20029;-48
2020/12/23 06:59:59;;;;;;;1.00;0.40;;;;;;;13.61;52.21;102064.78;5030537;28;20479;-45
2020/12/23 07:02:27;;;;;;;0.65;0.40;;;;;;;13.61;53.39;102064.78;5033367;28;20041;-45
2020/12/23 07:04:54;;;;;;;1.77;0.60;;;;;;;13.53;56.77;102065.91;5033856;28;20502;-45
2020/12/23 07:07:33;;;;;;;2.58;1.73;;;;;;;13.44;55.92;102069.97;5031062;28;20026;-46
2020/12/23 07:10:19;;;;;;;3.05;1.05;;;;;;;13.51;58.53;102065.31;5029980;28;20125;-45
2020/12/23 07:12:58;;;;;;;3.90;2.30;;;;;;;13.71;57.84;102069.63;5028021;28;20037;-50
2020/12/23 07:15:33;;;;;;;38.50;26.83;;;;;;;13.72;57.61;102072.09;5033572;28;20154;-49
2020/12/23 07:18:05;;;;;;;68.28;57.97;;;;;;;13.73;57.50;102067.53;5033595;28;20029;-52
2020/12/23 07:20:36;;;;;;;49.17;34.72;;;;;;;13.77;54.72;102066.03;5031694;28;20040;-48
2020/12/23 07:23:07;;;;;;;17.88;14.68;;;;;;;13.73;53.99;102064.84;5029738;28;20066;-50
2020/12/23 07:25:41;;;;;;;42.40;32.63;;;;;;;13.70;53.98;102065.31;5033350;28;20517;-47
2020/12/23 07:28:08;;;;;;;27.13;24.27;;;;;;;13.67;53.74;102060.34;5032869;28;20041;-48
2020/12/23 07:30:39;;;;;;;24.90;22.33;;;;;;;13.53;53.39;102057.81;5033246;28;20075;-49
2020/12/23 07:33:12;;;;;;;23.88;16.33;;;;;;;13.54;52.90;102062.19;5028796;28;20033;-48
2020/12/23 07:35:39;;;;;;;19.90;17.95;;;;;;;13.58;51.98;102054.47;5022001;28;20481;-51
2020/12/23 07:38:07;;;;;;;49.47;27.10;;;;;;;13.56;52.02;102056.56;5030182;28;20100;-52
2020/12/23 07:40:34;;;;;;;34.95;26.88;;;;;;;13.58;53.03;102054.47;5026219;28;20045;-49
2020/12/23 07:43:00;;;;;;;90.50;37.75;;;;;;;13.39;55.57;102059.03;5018574;28;20432;-47
2020/12/23 07:45:27;;;;;;;19.77;17.67;;;;;;;13.41;54.70;102051.56;5020719;28;20040;-48
2020/12/23 07:47:56;;;;;;;19.08;13.25;;;;;;;13.55;52.52;102049.50;5028063;28;20144;-49
2020/12/23 07:50:23;;;;;;;19.48;11.57;;;;;;;13.48;52.93;102056.88;5032581;28;20031;-52
2020/12/23 07:52:48;;;;;;;17.00;15.32;;;;;;;13.54;52.87;102055.97;5032623;28;20036;-51
2020/12/23 07:55:15;;;;;;;14.60;13.10;;;;;;;13.55;53.27;102058.44;5032811;28;20037;-49
2020/12/23 07:57:41;;;;;;;12.30;7.38;;;;;;;13.48;53.41;102065.78;5032845;28;20076;-45
2020/12/23 08:00:09;;;;;;;7.75;7.00;;;;;;;13.43;53.81;102058.38;5032766;28;20361;-47
2020/12/23 08:02:35;;;;;;;9.93;8.98;;;;;;;13.34;53.37;102061.59;5031439;28;20369;-47
2020/12/23 08:05:01;;;;;;;30.02;27.23;;;;;;;13.38;53.04;102057.41;5032813;28;20144;-47
2020/12/23 08:07:26;;;;;;;16.45;14.85;;;;;;;13.45;52.42;102055.47;5029850;28;20033;-48
2020/12/23 08:09:52;;;;;;;17.95;16.17;;;;;;;13.45;52.49;102060.84;5032612;28;20476;-47
2020/12/23 08:12:19;;;;;;;17.45;15.85;;;;;;;13.46;52.03;102067.06;5032170;28;20091;-47
2020/12/23 08:14:46;;;;;;;18.58;16.88;;;;;;;13.46;52.02;102064.34;5026995;28;20033;-44
2020/12/23 08:17:31;;;;;;;18.25;14.63;;;;;;;13.40;52.25;102068.78;5032164;28;20388;-49
2020/12/23 08:20:14;;;;;;;6.55;4.63;;;;;;;13.50;52.01;102077.16;5028407;28;20065;-48
2020/12/23 08:22:44;;;;;;;5.18;4.05;;;;;;;13.53;53.88;102070.47;5031378;28;20048;-44
2020/12/23 08:25:12;;;;;;;14.93;13.37;;;;;;;13.55;53.00;102066.53;5032539;28;20037;-45
2020/12/23 08:27:41;;;;;;;28.75;18.98;;;;;;;13.61;53.08;102070.19;5032132;28;20424;-45
2020/12/23 08:30:10;;;;;;;30.38;25.83;;;;;;;13.54;53.80;102075.66;5032287;28;20510;-46
2020/12/23 08:32:45;;;;;;;24.10;21.25;;;;;;;13.55;54.60;102081.84;5032006;28;20041;-46
2020/12/23 08:35:12;;;;;;;30.95;21.52;;;;;;;13.48;54.89;102087.34;5031024;28;20068;-46
2020/12/23 08:37:38;;;;;;;13.50;12.15;;;;;;;13.54;54.66;102080.22;5031976;28;20049;-71
2020/12/23 08:40:06;;;;;;;17.58;15.68;;;;;;;13.29;54.70;102082.97;5031678;28;20049;-72
2020/12/23 08:42:31;;;;;;;14.10;12.65;;;;;;;13.31;55.04;102086.28;5031984;28;20030;-73
2020/12/23 08:44:57;;;;;;;15.30;9.95;;;;;;;13.29;56.80;102102.66;5030599;28;20412;-72
2020/12/23 08:47:27;;;;;;;5.38;4.65;;;;;;;13.30;55.85;102092.69;5030465;28;20034;-71
2020/12/23 08:49:54;;;;;;;19.48;5.25;;;;;;;13.28;55.84;102097.50;5028961;28;20395;-70
2020/12/23 08:52:21;;;;;;;6.68;5.15;;;;;;;13.36;56.18;102097.22;5030008;28;20040;-67
2020/12/23 08:54:48;;;;;;;8.48;5.13;;;;;;;13.46;56.06;102104.78;5028632;28;20033;-69
2020/12/23 08:57:27;;;;;;;5.00;4.45;;;;;;;13.45;56.58;102097.72;5029809;28;20400;-67
2020/12/23 08:59:54;;;;;;;5.90;4.38;;;;;;;13.49;56.75;102094.38;5029662;28;20046;-67
2020/12/23 09:02:21;;;;;;;16.55;10.75;;;;;;;13.56;56.83;102099.69;5029159;28;20087;-68
2020/12/23 09:04:46;;;;;;;102.50;82.25;;;;;;;13.45;56.52;102103.09;5025460;28;20044;-72
2020/12/23 09:07:19;;;;;;;163.65;126.53;;;;;;;13.36;56.86;102105.31;5030373;28;20030;-70
2020/12/23 09:09:45;;;;;;;121.85;106.75;;;;;;;13.32;56.63;102104.91;5025531;28;20044;-71
2020/12/23 09:12:18;;;;;;;75.07;62.33;;;;;;;13.43;58.93;102114.13;5031317;28;20029;-71
2020/12/23 09:14:43;;;;;;;41.60;32.15;;;;;;;13.39;57.11;102118.31;5029004;28;20395;-70
2020/12/23 09:17:21;;;;;;;31.38;28.15;;;;;;;13.32;56.78;102114.88;5028709;28;20025;-71
2020/12/23 09:20:03;;;;;;;28.48;25.48;;;;;;;13.43;56.98;102120.34;5025130;28;20111;-71
2020/12/23 09:22:30;;;;;;;9.43;6.57;;;;;;;13.57;57.58;102122.91;5025049;28;20033;-71
2020/12/23 09:25:15;;;;;;;8.20;6.63;;;;;;;13.52;57.88;102128.94;5029725;28;20388;-71
2020/12/23 09:27:41;;;;;;;15.43;13.85;;;;;;;13.53;57.49;102124.38;5028660;28;20033;-70
2020/12/23 09:30:07;;;;;;;26.10;23.02;;;;;;;13.52;57.48;102130.81;5029276;28;20074;-71
2020/12/23 09:32:33;;;;;;;14.43;13.02;;;;;;;13.48;58.15;102124.22;5028101;28;20040;-71
2020/12/23 09:35:31;;;;;;;15.10;13.68;;;;;;;13.65;58.46;102121.75;5028012;28;20049;-69
2020/12/23 09:38:05;;;;;;;16.80;15.15;;;;;;;13.64;59.97;102120.94;5018395;28;20057;-70
2020/12/23 09:40:31;;;;;;;5.47;4.20;;;;;;;13.70;61.72;102114.63;5027645;28;20037;-71
2020/12/23 09:42:56;;;;;;;15.45;13.93;;;;;;;13.81;60.06;102134.59;5031038;28;20040;-69
2020/12/23 09:45:22;;;;;;;24.08;21.67;;;;;;;13.88;59.50;102121.84;5031015;28;20042;-70
2020/12/23 09:47:47;;;;;;;23.23;20.83;;;;;;;14.05;59.15;102124.75;5031041;28;20464;-68
2020/12/23 09:50:13;;;;;;;34.92;31.77;;;;;;;14.23;58.25;102121.16;5031134;28;20056;-69
2020/12/23 09:52:39;;;;;;;22.00;19.80;;;;;;;14.51;58.34;102117.00;5030840;28;20049;-68
2020/12/23 09:55:07;;;;;;;31.75;28.08;;;;;;;14.75;57.21;102120.59;5029708;28;20087;-69
2020/12/23 09:57:34;;;;;;;26.85;24.17;;;;;;;14.88;57.51;102119.53;5031009;28;20049;-69
2020/12/23 09:59:59;;;;;;;30.02;26.33;;;;;;;15.03;56.30;102125.31;5030717;28;20145;-67
2020/12/23 10:02:24;;;;;;;39.58;34.67;;;;;;;15.27;55.85;102119.84;5030596;28;20458;-68
2020/12/23 10:04:50;;;;;;;39.65;28.40;;;;;;;15.35;55.23;102124.91;5029713;28;20037;-69
2020/12/23 10:07:17;;;;;;;24.25;20.13;;;;;;;15.59;54.41;102130.28;5029415;28;20040;-68
2020/12/23 10:09:43;;;;;;;16.23;14.60;;;;;;;15.64;54.85;102125.78;5030396;28;20120;-69
2020/12/23 10:12:08;;;;;;;10.88;9.77;;;;;;;16.00;54.14;102120.28;5034144;28;20124;-71
2020/12/23 10:14:34;;;;;;;14.93;11.52;;;;;;;16.23;53.77;102125.59;5034185;28;20064;-69
2020/12/23 10:16:59;;;;;;;10.63;9.63;;;;;;;16.59;53.31;102128.06;5034264;28;20033;-70
2020/12/23 10:19:25;;;;;;;8.50;6.18;;;;;;;17.01;51.91;102114.94;5034127;28;20030;-70
2020/12/23 10:21:50;;;;;;;7.45;6.57;;;;;;;17.31;50.35;102111.00;5034277;28;20432;-69
2020/12/23 10:24:15;;;;;;;7.82;7.10;;;;;;;17.46;50.60;102107.69;5034145;28;20419;-68
2020/12/23 10:26:42;;;;;;;25.42;22.65;;;;;;;17.52;50.27;102111.25;5033965;28;20037;-69
2020/12/23 10:29:08;;;;;;;19.55;17.67;;;;;;;17.65;50.32;102105.44;5028154;28;20041;-68
2020/12/23 10:31:33;;;;;;;18.70;13.57;;;;;;;17.90;48.80;102102.22;5032134;28;20060;-68
2020/12/23 10:33:59;;;;;;;26.25;13.40;;;;;;;18.21;48.36;102096.28;5030655;28;20149;-68
2020/12/23 10:36:24;;;;;;;7.47;6.75;;;;;;;18.49;48.65;102087.81;5033811;28;20049;-65
2020/12/23 10:38:51;;;;;;;11.43;10.35;;;;;;;18.45;48.11;102078.56;5033914;28;20025;-67
2020/12/23 10:41:18;;;;;;;23.83;19.20;;;;;;;18.75;47.68;102082.56;5033889;28;20041;-67
2020/12/23 10:43:44;;;;;;;39.97;32.78;;;;;;;18.73;47.00;102071.16;5033853;28;20368;-67
2020/12/23 10:46:09;;;;;;;26.65;23.67;;;;;;;19.01;46.66;102056.38;5033319;28;20129;-67
2020/12/23 10:48:35;;;;;;;23.90;17.45;;;;;;;19.16;46.20;102050.22;5032791;28;20060;-67
2020/12/23 10:51:03;;;;;;;40.08;30.77;;;;;;;19.23;46.32;102058.94;5033528;28;20034;-67
2020/12/23 10:53:30;;;;;;;21.30;13.90;;;;;;;19.44;47.07;102040.81;5031552;28;20535;-67
2020/12/23 10:55:55;;;;;;;13.95;10.82;;;;;;;19.36;47.67;102044.03;5032915;28;20031;-67
2020/12/23 10:58:21;;;;;;;12.40;11.10;;;;;;;19.49;47.30;102039.97;5033018;28;20120;-67
2020/12/23 11:00:46;;;;;;;23.30;12.10;;;;;;;19.53;46.71;102035.66;5033278;28;20391;-67
2020/12/23 11:03:12;;;;;;;9.70;8.70;;;;;;;19.74;46.11;102033.81;5033020;28;22154;-67
2020/12/23 11:05:37;;;;;;;13.75;8.32;;;;;;;19.76;45.36;102039.81;5033199;28;20041;-67
2020/12/23 11:08:03;;;;;;;9.40;8.43;;;;;;;20.02;45.43;102029.75;5033125;28;20136;-67
2020/12/23 11:10:28;;;;;;;6.25;4.20;;;;;;;20.10;45.30;102033.03;5032915;28;20460;-66
2020/12/23 11:12:53;;;;;;;8.70;3.45;;;;;;;19.86;47.21;102028.09;5030538;28;20165;-65
2020/12/23 11:15:19;;;;;;;3.97;2.85;;;;;;;19.71;45.34;102026.16;5033138;28;20329;-66
2020/12/23 11:17:45;;;;;;;3.05;2.00;;;;;;;19.36;47.48;102025.00;5032295;28;20045;-65
2020/12/23 11:20:11;;;;;;;10.05;3.78;;;;;;;19.51;45.84;102009.78;5030201;28;20115;-65
2020/12/23 11:22:36;;;;;;;4.07;3.10;;;;;;;19.53;46.24;102019.34;5029663;28;20041;-65